Latest Weather Observations for kunanyi / Mount Wellington

IDT60901

Issued at 9:11 am EST Tuesday 25 September 2018 (issued every 10 minutes, with the page automatically refreshed every 10 minutes)

About weather observations | Map of Hobart area stations | Latest observations for Hobart area | Other Formats
Station Details ID: 094087 Name: KUNANYI (MOUNT WELLINGTON PINNACLE) Lat: -42.90 Lon: 147.24 Height: 1260.47 m
Data from the previous 72 hours. | See also: Recent months at kunanyi / Mount Wellington
Date/Time
EST
Temp
°C
App
Temp
°C
Dew
Point
°C
Rel
Hum
%
Delta-T
°C
Wind Press
QNH
hPa
Press
MSL
hPa
Rain since
9am
mm
Dir  Spd
km/h
Gust
km/h
Spd
kts
Gust
kts
25/09:00am - - - - - SW 20 26 11 14 - - -
25/08:30am - - - - - SW 19 24 10 13 - - -
25/08:00am - - - - - SW 20 26 11 14 - - -
25/07:30am - - - - - SW 26 33 14 18 - - -
25/07:00am - - - - - SW 22 28 12 15 - - -
25/06:30am - - - - - SW 24 30 13 16 - - -
25/06:00am - - - - - WSW 24 32 13 17 - - -
25/05:30am - - - - - SW 33 41 18 22 - - -
25/05:00am - - - - - SW 35 39 19 21 - - -
25/04:30am - - - - - SW 32 37 17 20 - - -
25/04:00am - - - - - SW 35 41 19 22 - - -
25/03:30am - - - - - SW 37 41 20 22 - - -
25/03:00am - - - - - WSW 35 43 19 23 - - -
25/02:30am - - - - - SW 35 41 19 22 - - -
25/02:00am - - - - - SW 33 41 18 22 - - -
25/01:30am - - - - - SW 30 35 16 19 - - -
25/01:00am - - - - - SW 30 37 16 20 - - -
25/12:30am - - - - - SW 35 41 19 22 - - -
25/12:00am - - - - - SW 32 39 17 21 - - -
 
Date/Time
EST
Temp
°C
App
Temp
°C
Dew
Point
°C
Rel
Hum
%
Delta-T
°C
Wind Press
QNH
hPa
Press
MSL
hPa
Rain since
9am
mm
Dir  Spd
km/h
Gust
km/h
Spd
kts
Gust
kts
24/11:30pm - - - - - SW 32 37 17 20 - - -
24/11:00pm - - - - - SW 39 43 21 23 - - -
24/10:30pm - - - - - SW 35 43 19 23 - - -
24/10:00pm - - - - - SW 35 43 19 23 - - -
24/09:30pm - - - - - SW 28 35 15 19 - - -
24/09:00pm - - - - - SW 26 35 14 19 - - -
24/08:30pm - - - - - SW 32 41 17 22 - - -
24/08:00pm - - - - - WSW 28 33 15 18 - - -
24/07:30pm - - - - - SW 26 33 14 18 - - -
24/07:00pm - - - - - SW 28 32 15 17 - - -
24/06:30pm - - - - - SW 26 33 14 18 - - -
24/06:00pm - - - - - SW 32 43 17 23 - - -
24/05:30pm - - - - - WSW 33 41 18 22 - - -
24/05:00pm - - - - - WSW 24 32 13 17 - - -
24/04:30pm - - - - - WSW 24 32 13 17 - - -
24/04:00pm - - - - - W 22 28 12 15 - - -
24/03:30pm - - - - - W 20 28 11 15 - - -
24/03:00pm - - - - - WSW 22 33 12 18 - - -
24/02:30pm - - - - - WSW 20 26 11 14 - - -
24/02:00pm - - - - - W 15 24 8 13 - - -
24/01:30pm - - - - - WSW 17 26 9 14 - - -
24/01:00pm - - - - - WSW 20 28 11 15 - - -
24/12:30pm - - - - - WSW 22 30 12 16 - - -
24/12:00pm - - - - - WSW 19 22 10 12 - - -
24/11:30am - - - - - WSW 19 24 10 13 - - -
24/11:00am - - - - - SW 17 24 9 13 - - -
24/10:30am - - - - - WSW 19 24 10 13 - - -
24/10:00am - - - - - SW 13 17 7 9 - - -
24/09:30am - - - - - SW 20 28 11 15 - - -
24/09:00am - - - - - SW 22 30 12 16 - - -
24/08:30am - - - - - SW 26 32 14 17 - - -
24/08:00am - - - - - SW 20 28 11 15 - - -
24/07:30am - - - - - SW 20 26 11 14 - - -
24/07:00am - - - - - SW 19 24 10 13 - - -
24/06:30am - - - - - SW 19 24 10 13 - - -
24/06:00am - - - - - WSW 19 24 10 13 - - -
24/05:30am - - - - - WSW 19 24 10 13 - - -
24/05:00am - - - - - SW 17 22 9 12 - - -
24/04:30am - - - - - WSW 20 28 11 15 - - -
24/04:00am - - - - - WSW 20 28 11 15 - - -
24/03:30am - - - - - SW 19 24 10 13 - - -
24/03:00am -4.4 -10.6 -5.2 94 0.1 SW 19 28 10 15 - - -
24/02:30am - - - - - SW 17 24 9 13 - - -
24/02:00am - - - - - SW 17 22 9 12 - - -
24/01:30am - - - - - SW 19 30 10 16 - - -
24/01:00am - - - - - SSW 17 24 9 13 - - -
24/12:30am - - - - - SW 17 24 9 13 - - -
24/12:00am - - - - - SW 19 24 10 13 - - -
 
Date/Time
EST
Temp
°C
App
Temp
°C
Dew
Point
°C
Rel
Hum
%
Delta-T
°C
Wind Press
QNH
hPa
Press
MSL
hPa
Rain since
9am
mm
Dir  Spd
km/h
Gust
km/h
Spd
kts
Gust
kts
23/11:30pm - - - - - SW 22 32 12 17 - - -
23/11:00pm - - - - - SW 22 26 12 14 - - -
23/10:30pm - - - - - SW 19 26 10 14 - - -
23/10:00pm - - - - - SW 19 24 10 13 - - -
23/09:30pm - - - - - SW 22 28 12 15 - - -
23/09:00pm - - - - - SW 28 35 15 19 - - -
23/08:30pm - - - - - SW 30 39 16 21 - - -
23/08:00pm - - - - - SW 32 41 17 22 - - -
23/07:30pm - - - - - SW 30 39 16 21 - - -
23/07:00pm - - - - - SW 30 37 16 20 - - -
23/06:30pm - - - - - SW 20 28 11 15 - - -
23/06:00pm - - - - - SW 30 43 16 23 - - -
23/05:30pm - - - - - SW 33 41 18 22 - - -
23/05:00pm - - - - - SW 24 33 13 18 - - -
23/04:30pm - - - - - SW 26 35 14 19 - - -
23/04:00pm - - - - - SW 24 39 13 21 - - -
23/03:30pm - - - - - SW 20 37 11 20 - - -
23/03:00pm - - - - - WSW 33 50 18 27 - - -
23/02:47pm - - - - - SW 30 48 16 26 - - -
23/02:30pm - - - - - SW 19 30 10 16 - - -
23/02:00pm - - - - - SW 22 37 12 20 - - -
23/01:30pm - - - - - SW 33 44 18 24 - - -
23/01:00pm - - - - - SW 39 63 21 34 - - -
23/12:30pm - - - - - SW 43 57 23 31 - - -
23/12:00pm - - - - - SW 33 50 18 27 - - -
23/11:51am - - - - - SW 32 52 17 28 - - -
23/11:30am - - - - - SW 44 56 24 30 - - -
23/11:00am - - - - - WSW 33 48 18 26 - - -
23/10:45am - - - - - WSW 30 50 16 27 - - -
23/10:30am - - - - - SW 24 35 13 19 - - -
23/10:01am - - - - - SW 28 46 15 25 - - -
23/10:00am - - - - - SW 26 39 14 21 - - -
23/09:30am - - - - - WSW 32 50 17 27 - - -
23/09:00am - - - - - SW 32 50 17 27 - - -
23/08:30am - - - - - SW 35 46 19 25 - - -
23/08:00am - - - - - SW 35 50 19 27 - - -
23/07:30am - - - - - WSW 46 59 25 32 - - -
23/07:14am - - - - - SW 50 70 27 38 - - -
23/07:00am - - - - - WSW 46 61 25 33 - - -
23/06:49am - - - - - SW 37 57 20 31 - - -
23/06:30am - - - - - SW 35 50 19 27 - - -
23/06:00am - - - - - WSW 44 57 24 31 - - -
23/05:30am - - - - - WSW 41 54 22 29 - - -
23/05:00am - - - - - WSW 44 57 24 31 - - -
23/04:30am - - - - - WSW 43 56 23 30 - - -
23/04:00am - - - - - WSW 43 57 23 31 - - -
23/03:36am - - - - - WSW 44 65 24 35 - - -
23/03:30am - - - - - WSW 48 65 26 35 - - -
23/03:13am - - - - - WSW 44 63 24 34 - - -
23/03:00am - - - - - WSW 50 63 27 34 - - -
23/02:30am - - - - - WSW 52 67 28 36 - - -
23/02:07am -3.2 -14.5 -4.2 93 0.2 SW 46 67 25 36 - - -
23/02:00am -3.2 -13.9 -4.0 94 0.1 SW 43 52 23 28 - - -
23/01:30am -3.0 -12.9 -4.0 93 0.2 WSW 39 54 21 29 - - -
23/01:00am -3.3 -13.3 -4.4 92 0.2 WSW 39 50 21 27 - - -
23/12:30am -3.2 -14.4 -4.0 94 0.1 WSW 46 61 25 33 - - -
23/12:00am -2.8 -14.0 -3.3 96 0.0 WSW 46 63 25 34 - - -
 
Date/Time
EST
Temp
°C
App
Temp
°C
Dew
Point
°C
Rel
Hum
%
Delta-T
°C
Wind Press
QNH
hPa
Press
MSL
hPa
Rain since
9am
mm
Dir  Spd
km/h
Gust
km/h
Spd
kts
Gust
kts
22/11:33pm -2.3 -11.3 -2.8 96 0.1 WSW 35 54 19 29 - - -
22/11:30pm -2.4 -11.0 -2.9 96 0.1 WSW 33 48 18 26 - - -
22/11:00pm -2.2 -10.6 -2.7 96 0.1 WSW 32 44 17 24 - - -
22/10:30pm - - - - - WSW 37 48 20 26 - - -
22/10:00pm - - - - - SW 35 48 19 26 - - -
22/09:30pm - - - - - WSW 37 52 20 28 - - -
22/09:17pm - - - - - WSW 35 54 19 29 - - -
22/09:00pm - - - - - WSW 39 52 21 28 - - -
22/08:30pm - - - - - WSW 39 52 21 28 - - -
22/08:00pm - - - - - WSW 35 48 19 26 - - -
22/07:30pm - - - - - WSW 32 43 17 23 - - -
22/07:00pm - - - - - WSW 43 54 23 29 - - -
22/06:30pm - - - - - WSW 39 50 21 27 - - -
22/06:00pm - - - - - SW 43 54 23 29 - - -
22/05:30pm - - - - - WSW 46 61 25 33 - - -
22/05:00pm - - - - - WSW 54 67 29 36 - - -
22/04:30pm - - - - - WSW 48 61 26 33 - - -
22/04:00pm - - - - - WSW 33 52 18 28 - - -
22/03:44pm - - - - - WSW 28 50 15 27 - - -
22/03:30pm - - - - - WSW 22 41 12 22 - - -
22/03:00pm - - - - - W 39 56 21 30 - - -
22/02:53pm - - - - - W 44 72 24 39 - - -
22/02:30pm - - - - - W 56 82 30 44 - - -
22/02:00pm - - - - - W 52 72 28 39 - - -
22/01:30pm - - - - - W 50 82 27 44 - - -
22/01:01pm - - - - - WNW 50 69 27 37 - - -
22/01:00pm - - - - - WNW 52 70 28 38 - - -
22/12:32pm - - - - - WNW 59 80 32 43 - - -
22/12:30pm - - - - - WNW 61 78 33 42 - - -
22/12:00pm - - - - - WNW 57 76 31 41 - - -
22/11:30am - - - - - WNW 59 82 32 44 - - -
22/11:00am - - - - - W 59 80 32 43 - - -
22/10:30am - - - - - W 61 89 33 48 - - -
22/10:00am - - - - - W 65 89 35 48 - - -
22/09:31am - - - - - W 63 87 34 47 - - -
22/09:30am - - - - - W 63 80 34 43 - - -

Latest Capital City Observations: Canberra | Sydney | Melbourne | Brisbane | Adelaide | Perth | Hobart | Darwin

Other Formats:

Comma delimited format used in spreadsheet applications
http://www.bom.gov.au/fwo/IDT60901/IDT60901.95979.axf

JavaScript Object Notation format (JSON) in row-major order
http://www.bom.gov.au/fwo/IDT60901/IDT60901.95979.json